createdAt,value
2022-12-22T00:02:39.035Z,-4.35
2022-12-22T00:05:36.070Z,-4.36
2022-12-22T00:08:23.510Z,-4.35
2022-12-22T00:11:11.850Z,-4.34
2022-12-22T00:14:03.675Z,-4.33
2022-12-22T00:16:56.025Z,-4.32
2022-12-22T00:19:42.759Z,-4.32
2022-12-22T00:22:39.696Z,-4.30
2022-12-22T00:25:28.363Z,-4.30
2022-12-22T00:28:15.454Z,-4.29
2022-12-22T00:31:03.182Z,-4.29
2022-12-22T00:33:50.342Z,-4.29
2022-12-22T00:36:42.443Z,-4.28
2022-12-22T00:39:32.782Z,-4.26
2022-12-22T00:42:19.369Z,-4.25
2022-12-22T00:45:06.288Z,-4.23
2022-12-22T00:47:53.506Z,-4.20
2022-12-22T00:50:50.121Z,-4.19
2022-12-22T00:53:37.208Z,-4.18
2022-12-22T00:56:25.144Z,-4.17
2022-12-22T00:59:15.184Z,-4.17
2022-12-22T01:02:01.807Z,-4.15
2022-12-22T01:04:49.179Z,-4.15
2022-12-22T01:07:41.016Z,-4.16
2022-12-22T01:10:32.409Z,-4.16
2022-12-22T01:13:19.747Z,-4.18
2022-12-22T01:16:06.408Z,-4.21
2022-12-22T01:18:53.259Z,-4.24
2022-12-22T01:21:39.861Z,-4.26
2022-12-22T01:24:31.392Z,-4.28
2022-12-22T01:27:18.654Z,-4.29
2022-12-22T01:30:05.541Z,-4.31
2022-12-22T01:32:51.950Z,-4.33
2022-12-22T01:35:41.529Z,-4.35
2022-12-22T01:38:28.600Z,-4.36
2022-12-22T01:41:17.393Z,-4.38
2022-12-22T01:44:03.997Z,-4.39
2022-12-22T01:46:56.220Z,-4.41
2022-12-22T01:49:48.846Z,-4.43
2022-12-22T01:52:39.469Z,-4.46
2022-12-22T01:55:30.864Z,-4.48
2022-12-22T01:58:17.443Z,-4.51
2022-12-22T02:01:05.771Z,-4.54
2022-12-22T02:03:53.436Z,-4.57
2022-12-22T02:07:12.660Z,-4.58
2022-12-22T02:10:22.518Z,-4.60
2022-12-22T02:13:23.791Z,-4.61
2022-12-22T02:16:20.158Z,-4.62
2022-12-22T02:19:16.392Z,-4.63
2022-12-22T02:22:18.568Z,-4.63
2022-12-22T02:25:12.099Z,-4.64
2022-12-22T02:28:00.096Z,-4.65
2022-12-22T02:30:47.557Z,-4.66
2022-12-22T02:33:34.600Z,-4.66
2022-12-22T02:36:52.101Z,-4.67
2022-12-22T02:40:11.812Z,-4.68
2022-12-22T02:43:13.353Z,-4.69
2022-12-22T02:46:28.523Z,-4.71
2022-12-22T02:49:21.049Z,-4.72
2022-12-22T02:52:20.132Z,-4.74
2022-12-22T02:55:06.643Z,-4.75
2022-12-22T02:57:52.916Z,-4.77
2022-12-22T03:00:40.111Z,-4.78
2022-12-22T03:03:27.036Z,-4.79
2022-12-22T03:06:13.849Z,-4.80
2022-12-22T03:09:00.701Z,-4.80
2022-12-22T03:11:47.103Z,-4.79
2022-12-22T03:14:33.719Z,-4.79
2022-12-22T03:17:20.368Z,-4.79
2022-12-22T03:20:06.843Z,-4.79
2022-12-22T03:22:53.513Z,-4.79
2022-12-22T03:25:40.393Z,-4.78
2022-12-22T03:28:09.250Z,-4.77
2022-12-22T03:30:38.231Z,-4.75
2022-12-22T03:33:06.612Z,-4.73
2022-12-22T03:35:34.682Z,-4.72
2022-12-22T03:38:03.781Z,-4.70
2022-12-22T03:40:32.152Z,-4.69
2022-12-22T03:43:18.693Z,-4.68
2022-12-22T03:46:05.574Z,-4.67
2022-12-22T03:48:33.570Z,-4.66
2022-12-22T03:51:01.829Z,-4.64
2022-12-22T03:53:30.211Z,-4.62
2022-12-22T03:56:01.296Z,-4.60
2022-12-22T03:58:33.859Z,-4.58
2022-12-22T04:01:08.189Z,-4.56
2022-12-22T04:03:36.205Z,-4.56
2022-12-22T04:06:04.495Z,-4.55
2022-12-22T04:08:32.966Z,-4.54
2022-12-22T04:11:20.084Z,-4.53
2022-12-22T04:13:48.050Z,-4.51
2022-12-22T04:16:16.365Z,-4.50
2022-12-22T04:18:44.356Z,-4.49
2022-12-22T04:21:12.576Z,-4.47
2022-12-22T04:23:41.216Z,-4.45
2022-12-22T04:26:09.686Z,-4.42
2022-12-22T04:28:37.648Z,-4.40
2022-12-22T04:31:05.701Z,-4.37
2022-12-22T04:33:33.726Z,-4.34
2022-12-22T04:36:02.140Z,-4.31
2022-12-22T04:38:30.318Z,-4.28
2022-12-22T04:40:58.353Z,-4.24
2022-12-22T04:43:26.659Z,-4.22
2022-12-22T04:45:55.771Z,-4.17
2022-12-22T04:48:25.839Z,-4.14
2022-12-22T04:50:56.171Z,-4.10
2022-12-22T04:53:26.197Z,-4.04
2022-12-22T04:56:01.044Z,-3.99
2022-12-22T04:58:29.883Z,-3.92
2022-12-22T05:01:07.584Z,-3.87
2022-12-22T05:03:35.812Z,-3.80
2022-12-22T05:06:04.329Z,-3.74
2022-12-22T05:08:32.399Z,-3.69
2022-12-22T05:11:02.894Z,-3.65
2022-12-22T05:13:32.004Z,-3.60
2022-12-22T05:16:07.867Z,-3.56
2022-12-22T05:18:37.650Z,-3.50
2022-12-22T05:21:18.119Z,-3.45
2022-12-22T05:23:46.699Z,-3.40
2022-12-22T05:26:17.277Z,-3.37
2022-12-22T05:28:46.801Z,-3.33
2022-12-22T05:31:21.623Z,-3.29
2022-12-22T05:33:49.999Z,-3.26
2022-12-22T05:36:19.094Z,-3.22
2022-12-22T05:38:47.181Z,-3.18
2022-12-22T05:41:15.353Z,-3.14
2022-12-22T05:43:43.325Z,-3.10
2022-12-22T05:46:12.607Z,-3.07
2022-12-22T05:48:40.834Z,-3.03
2022-12-22T05:51:09.691Z,-2.99
2022-12-22T05:53:38.370Z,-2.96
2022-12-22T05:56:07.939Z,-2.93
2022-12-22T05:58:38.982Z,-2.89
2022-12-22T06:01:07.335Z,-2.85
2022-12-22T06:03:35.476Z,-2.82
2022-12-22T06:06:03.764Z,-2.79
2022-12-22T06:08:31.925Z,-2.77
2022-12-22T06:11:00.299Z,-2.75
2022-12-22T06:13:28.395Z,-2.73
2022-12-22T06:15:56.838Z,-2.71
2022-12-22T06:18:25.458Z,-2.69
2022-12-22T06:20:53.841Z,-2.67
2022-12-22T06:23:22.708Z,-2.65
2022-12-22T06:25:59.591Z,-2.62
2022-12-22T06:28:28.692Z,-2.60
2022-12-22T06:30:56.960Z,-2.58
2022-12-22T06:33:25.340Z,-2.56
2022-12-22T06:35:58.699Z,-2.52
2022-12-22T06:38:28.358Z,-2.50
2022-12-22T06:40:56.989Z,-2.47
2022-12-22T06:43:25.917Z,-2.44
2022-12-22T06:45:54.071Z,-2.42
2022-12-22T06:48:22.339Z,-2.39
2022-12-22T06:50:50.855Z,-2.35
2022-12-22T06:53:19.031Z,-2.32
2022-12-22T06:55:47.322Z,-2.28
2022-12-22T06:58:15.582Z,-2.25
2022-12-22T07:00:45.458Z,-2.21
2022-12-22T07:03:13.813Z,-2.19
2022-12-22T07:05:42.464Z,-2.16
2022-12-22T07:08:10.540Z,-2.14
2022-12-22T07:10:57.232Z,-2.12
2022-12-22T07:13:34.255Z,-2.09
2022-12-22T07:16:04.976Z,-2.07
2022-12-22T07:18:35.596Z,-2.05
2022-12-22T07:21:05.705Z,-2.03
2022-12-22T07:23:34.185Z,-2.02
2022-12-22T07:26:02.865Z,-2.00
2022-12-22T07:28:34.207Z,-1.98
2022-12-22T07:31:03.608Z,-1.94
2022-12-22T07:33:32.257Z,-1.90
2022-12-22T07:36:06.282Z,-1.86
2022-12-22T07:38:36.135Z,-1.81
2022-12-22T07:41:25.701Z,-1.76
2022-12-22T07:43:54.521Z,-1.72
2022-12-22T07:46:24.711Z,-1.69
2022-12-22T07:49:13.203Z,-1.68
2022-12-22T07:51:43.455Z,-1.65
2022-12-22T07:54:14.148Z,-1.62
2022-12-22T07:56:43.713Z,-1.57
2022-12-22T07:59:12.837Z,-1.51
2022-12-22T08:01:41.838Z,-1.48
2022-12-22T08:04:11.386Z,-1.43
2022-12-22T08:06:40.317Z,-1.37
2022-12-22T08:09:09.296Z,-1.31
2022-12-22T08:11:37.393Z,-1.26
2022-12-22T08:14:05.772Z,-1.20
2022-12-22T08:16:34.098Z,-1.10
2022-12-22T08:19:04.275Z,-0.90
2022-12-22T08:21:32.814Z,-0.62
2022-12-22T08:24:01.062Z,-0.38
2022-12-22T08:26:40.705Z,-0.02
2022-12-22T08:29:20.213Z,0.31
2022-12-22T08:31:48.342Z,0.51
2022-12-22T08:34:16.772Z,0.71
2022-12-22T08:36:49.389Z,0.92
2022-12-22T08:39:20.708Z,1.03
2022-12-22T08:41:52.126Z,1.10
2022-12-22T08:44:24.252Z,1.14
2022-12-22T08:46:54.270Z,1.15
2022-12-22T08:49:23.017Z,1.16
2022-12-22T08:51:51.897Z,1.17
2022-12-22T08:54:20.612Z,1.21
2022-12-22T08:56:49.957Z,1.37
2022-12-22T08:59:17.945Z,1.54
2022-12-22T09:01:50.931Z,1.93
2022-12-22T09:04:23.216Z,3.07
2022-12-22T09:06:53.612Z,4.85
2022-12-22T09:09:21.719Z,6.16
2022-12-22T09:11:50.348Z,6.74
2022-12-22T09:14:18.572Z,7.16
2022-12-22T09:16:46.724Z,8.12
2022-12-22T09:19:14.719Z,8.84
2022-12-22T09:21:43.411Z,9.89
2022-12-22T09:24:11.640Z,10.65
2022-12-22T09:26:40.284Z,10.60
2022-12-22T09:29:08.546Z,10.39
2022-12-22T09:31:36.969Z,10.31
2022-12-22T09:34:04.956Z,10.07
2022-12-22T09:36:34.089Z,9.55
2022-12-22T09:39:06.773Z,9.07
2022-12-22T09:41:58.019Z,8.70
2022-12-22T09:44:31.322Z,9.07
2022-12-22T09:47:03.100Z,8.93
2022-12-22T09:49:31.424Z,8.73
2022-12-22T09:52:02.628Z,8.70
2022-12-22T09:54:31.151Z,8.44
2022-12-22T09:56:59.421Z,8.05
2022-12-22T09:59:28.851Z,7.65
2022-12-22T10:02:34.486Z,7.34
2022-12-22T10:05:26.870Z,6.95
2022-12-22T10:08:02.071Z,6.65
2022-12-22T10:10:31.660Z,6.38
2022-12-22T10:13:03.112Z,6.21
2022-12-22T10:15:40.166Z,6.14
2022-12-22T10:18:10.832Z,6.04
2022-12-22T10:20:39.999Z,5.93
2022-12-22T10:23:23.682Z,5.82
2022-12-22T10:26:27.611Z,5.83
2022-12-22T10:28:51.730Z,6.11
2022-12-22T10:31:27.500Z,6.24
2022-12-22T10:34:09.513Z,6.23
2022-12-22T10:36:39.014Z,6.13
2022-12-22T10:39:11.387Z,6.04
2022-12-22T10:41:47.316Z,5.98
2022-12-22T10:44:26.182Z,5.92
2022-12-22T10:47:17.136Z,5.84
2022-12-22T10:52:29.481Z,5.59
2022-12-22T10:55:22.454Z,5.45
2022-12-22T10:57:50.752Z,5.33
2022-12-22T11:00:27.114Z,5.29
2022-12-22T11:03:00.933Z,5.28
2022-12-22T11:05:29.925Z,5.30
2022-12-22T11:08:13.237Z,5.38
2022-12-22T11:11:07.927Z,5.48
2022-12-22T11:13:55.581Z,5.57
2022-12-22T11:16:46.532Z,5.60
2022-12-22T11:19:55.640Z,5.58
2022-12-22T11:22:46.570Z,5.53
2022-12-22T11:25:14.464Z,5.51
2022-12-22T11:28:19.898Z,5.45
2022-12-22T11:31:20.447Z,5.42
2022-12-22T11:34:28.595Z,5.47
2022-12-22T11:37:15.246Z,5.62
2022-12-22T11:39:57.442Z,5.80
2022-12-22T11:42:58.317Z,5.94
2022-12-22T11:45:54.396Z,6.09
2022-12-22T11:48:32.212Z,6.23
2022-12-22T11:51:36.131Z,6.40
2022-12-22T11:54:11.967Z,6.50
2022-12-22T11:56:44.548Z,6.50
2022-12-22T11:59:24.411Z,6.47
2022-12-22T12:02:11.456Z,6.45
2022-12-22T12:05:06.945Z,6.32
2022-12-22T12:07:41.224Z,6.12
2022-12-22T12:10:56.227Z,5.97
2022-12-22T12:13:37.654Z,5.77
2022-12-22T12:16:24.003Z,5.60
2022-12-22T12:19:23.111Z,5.40
2022-12-22T12:22:00.666Z,5.17
2022-12-22T12:25:02.015Z,5.02
2022-12-22T12:27:51.146Z,4.88
2022-12-22T12:30:38.071Z,4.77
2022-12-22T12:33:16.050Z,4.62
2022-12-22T12:36:03.264Z,4.50
2022-12-22T12:39:07.506Z,4.41
2022-12-22T12:41:36.583Z,4.28
2022-12-22T12:44:06.146Z,4.22
2022-12-22T12:46:55.375Z,4.15
2022-12-22T12:49:36.213Z,4.06
2022-12-22T12:52:11.779Z,3.98
2022-12-22T12:54:43.693Z,3.93
2022-12-22T12:57:31.159Z,3.87
2022-12-22T13:00:00.813Z,3.82
2022-12-22T13:02:32.232Z,3.79
2022-12-22T13:05:13.660Z,3.79
2022-12-22T13:08:11.617Z,3.84
2022-12-22T13:10:49.689Z,3.94
2022-12-22T13:13:27.078Z,4.10
2022-12-22T13:16:10.337Z,4.21
2022-12-22T13:18:47.457Z,4.24
2022-12-22T13:24:25.213Z,4.30
2022-12-22T13:26:56.206Z,4.20
2022-12-22T13:29:28.225Z,4.12
2022-12-22T13:32:02.859Z,4.03
2022-12-22T13:35:30.377Z,3.92
2022-12-22T13:37:47.529Z,3.83
2022-12-22T13:40:22.445Z,3.79
2022-12-22T13:42:54.349Z,3.74
2022-12-22T13:45:28.526Z,3.64
2022-12-22T13:47:56.904Z,3.52
2022-12-22T13:50:36.665Z,3.41
2022-12-22T13:53:08.269Z,3.32
2022-12-22T13:55:37.113Z,3.28
2022-12-22T13:58:09.466Z,3.22
2022-12-22T14:00:37.670Z,3.16
2022-12-22T14:03:41.690Z,3.08
2022-12-22T14:06:34.403Z,3.02
2022-12-22T14:09:25.872Z,2.97
2022-12-22T14:12:03.874Z,2.93
2022-12-22T14:14:38.879Z,2.92
2022-12-22T14:17:22.316Z,2.92
2022-12-22T14:19:52.733Z,2.91
2022-12-22T14:22:43.843Z,2.89
2022-12-22T14:25:32.717Z,2.88
2022-12-22T14:28:01.388Z,2.87
2022-12-22T14:30:38.795Z,2.83
2022-12-22T14:33:28.588Z,2.78
2022-12-22T14:36:24.086Z,2.74
2022-12-22T14:38:52.441Z,2.70
2022-12-22T14:41:44.346Z,2.66
2022-12-22T14:44:15.408Z,2.60
2022-12-22T14:46:45.586Z,2.58
2022-12-22T14:49:19.845Z,2.56
2022-12-22T14:52:04.036Z,2.51
2022-12-22T14:54:32.484Z,2.47
2022-12-22T14:57:15.547Z,2.45
2022-12-22T15:00:05.254Z,2.41
2022-12-22T15:02:39.641Z,2.36
2022-12-22T15:05:24.571Z,2.32
2022-12-22T15:08:10.742Z,2.31
2022-12-22T15:10:42.767Z,2.29
2022-12-22T15:13:19.013Z,2.26
2022-12-22T15:15:47.286Z,2.24
2022-12-22T15:18:15.985Z,2.23
2022-12-22T15:20:44.274Z,2.21
2022-12-22T15:23:14.853Z,2.18
2022-12-22T15:25:43.454Z,2.13
2022-12-22T15:28:11.486Z,2.10
2022-12-22T15:30:39.948Z,2.07
2022-12-22T15:33:16.581Z,2.03
2022-12-22T15:35:45.184Z,2.00
2022-12-22T15:38:19.169Z,1.97
2022-12-22T15:40:47.749Z,1.96
2022-12-22T15:43:55.218Z,1.94
2022-12-22T15:46:07.061Z,1.93
2022-12-22T15:48:38.574Z,1.94
2022-12-22T15:51:21.122Z,1.95
2022-12-22T15:53:50.306Z,1.94
2022-12-22T15:56:21.778Z,1.93
2022-12-22T15:58:49.969Z,1.92
2022-12-22T16:01:18.297Z,1.93
2022-12-22T16:03:46.708Z,1.94
2022-12-22T16:06:17.698Z,1.96
2022-12-22T16:08:52.035Z,1.98
2022-12-22T16:11:20.420Z,1.97
2022-12-22T16:13:50.445Z,1.97
2022-12-22T16:16:18.604Z,1.97
2022-12-22T16:18:46.739Z,1.95
2022-12-22T16:21:18.614Z,1.92
2022-12-22T16:23:49.462Z,1.90
2022-12-22T16:26:20.945Z,1.88
2022-12-22T16:28:49.215Z,1.87
2022-12-22T16:31:22.413Z,1.86
2022-12-22T16:33:50.990Z,1.84
2022-12-22T16:36:19.191Z,1.83
2022-12-22T16:38:48.095Z,1.84
2022-12-22T16:41:22.049Z,1.85
2022-12-22T16:43:51.018Z,1.85
2022-12-22T16:46:22.377Z,1.83
2022-12-22T16:48:54.792Z,1.82
2022-12-22T16:51:26.700Z,1.79
2022-12-22T16:53:54.655Z,1.77
2022-12-22T16:56:28.234Z,1.76
2022-12-22T16:58:57.317Z,1.74
2022-12-22T17:01:31.440Z,1.75
2022-12-22T17:04:05.648Z,1.74
2022-12-22T17:06:35.271Z,1.72
2022-12-22T17:09:07.310Z,1.71
2022-12-22T17:11:37.370Z,1.69
2022-12-22T17:14:16.824Z,1.68
2022-12-22T17:16:44.851Z,1.68
2022-12-22T17:19:13.291Z,1.68
2022-12-22T17:21:41.267Z,1.66
2022-12-22T17:24:14.090Z,1.65
2022-12-22T17:26:42.663Z,1.65
2022-12-22T17:29:17.309Z,1.64
2022-12-22T17:31:45.445Z,1.64
2022-12-22T17:34:16.753Z,1.63
2022-12-22T17:36:47.560Z,1.63
2022-12-22T17:39:18.771Z,1.61
2022-12-22T17:41:54.045Z,1.59
2022-12-22T17:44:26.797Z,1.59
2022-12-22T17:46:55.308Z,1.60
2022-12-22T17:49:23.576Z,1.59
2022-12-22T17:51:51.652Z,1.57
2022-12-22T17:54:25.898Z,1.53
2022-12-22T17:56:59.602Z,1.48
2022-12-22T17:59:27.743Z,1.42
2022-12-22T18:01:56.117Z,1.38
2022-12-22T18:04:24.159Z,1.36
2022-12-22T18:06:52.259Z,1.34
2022-12-22T18:09:26.599Z,1.32
2022-12-22T18:11:54.646Z,1.31
2022-12-22T18:14:23.219Z,1.30
2022-12-22T18:16:51.402Z,1.29
2022-12-22T18:19:19.580Z,1.28
2022-12-22T18:21:48.375Z,1.26
2022-12-22T18:24:18.845Z,1.22
2022-12-22T18:26:47.584Z,1.20
2022-12-22T18:29:16.824Z,1.18
2022-12-22T18:31:45.481Z,1.17
2022-12-22T18:34:13.843Z,1.16
2022-12-22T18:36:44.196Z,1.15
2022-12-22T18:39:21.705Z,1.13
2022-12-22T18:41:49.753Z,1.09
2022-12-22T18:44:19.198Z,1.08
2022-12-22T18:46:48.761Z,1.08
2022-12-22T18:49:17.381Z,1.08
2022-12-22T18:51:46.088Z,1.08
2022-12-22T18:54:31.385Z,1.07
2022-12-22T18:56:59.503Z,1.08
2022-12-22T18:59:28.594Z,1.08
2022-12-22T19:02:02.800Z,1.10
2022-12-22T19:04:30.969Z,1.13
2022-12-22T19:06:58.920Z,1.14
2022-12-22T19:09:27.405Z,1.18
2022-12-22T19:11:55.475Z,1.20
2022-12-22T19:14:23.596Z,1.22
2022-12-22T19:16:54.779Z,1.24
2022-12-22T19:19:22.972Z,1.25
2022-12-22T19:21:51.236Z,1.26
2022-12-22T19:24:19.218Z,1.26
2022-12-22T19:26:47.318Z,1.28
2022-12-22T19:29:15.613Z,1.30
2022-12-22T19:31:44.448Z,1.32
2022-12-22T19:34:19.942Z,1.34
2022-12-22T19:36:48.121Z,1.36
2022-12-22T19:39:16.428Z,1.38
2022-12-22T19:41:51.367Z,1.40
2022-12-22T19:44:26.528Z,1.44
2022-12-22T19:46:59.215Z,1.47
2022-12-22T19:49:29.141Z,1.50
2022-12-22T19:51:57.940Z,1.51
2022-12-22T19:54:26.003Z,1.52
2022-12-22T19:56:56.105Z,1.55
2022-12-22T19:59:41.455Z,1.55
2022-12-22T20:02:24.753Z,1.51
2022-12-22T20:04:54.690Z,1.47
2022-12-22T20:07:25.166Z,1.45
2022-12-22T20:09:53.862Z,1.44
2022-12-22T20:12:29.809Z,1.42
2022-12-22T20:14:58.311Z,1.38
2022-12-22T20:17:26.314Z,1.35
2022-12-22T20:19:54.454Z,1.32
2022-12-22T20:22:23.322Z,1.31
2022-12-22T20:24:51.517Z,1.31
2022-12-22T20:27:23.438Z,1.26
2022-12-22T20:29:51.572Z,1.20
2022-12-22T20:32:27.345Z,1.18
2022-12-22T20:34:56.577Z,1.16
2022-12-22T20:37:25.524Z,1.14
2022-12-22T20:39:53.552Z,1.10
2022-12-22T20:42:23.867Z,1.08
2022-12-22T20:45:03.319Z,1.09
2022-12-22T20:47:34.303Z,1.08
2022-12-22T20:50:02.420Z,1.08
2022-12-22T20:52:30.387Z,1.09
2022-12-22T20:54:59.083Z,1.06
2022-12-22T20:57:27.980Z,1.05
2022-12-22T20:59:56.876Z,1.05
2022-12-22T21:02:29.771Z,1.07
2022-12-22T21:04:58.441Z,1.08
2022-12-22T21:07:26.519Z,1.09
2022-12-22T21:09:55.912Z,1.08
2022-12-22T21:12:23.979Z,1.07
2022-12-22T21:14:52.461Z,1.07
2022-12-22T21:17:20.767Z,1.07
2022-12-22T21:19:48.781Z,1.09
2022-12-22T21:22:16.645Z,1.10
2022-12-22T21:24:44.818Z,1.10
2022-12-22T21:27:20.458Z,1.10
2022-12-22T21:29:48.513Z,1.11
2022-12-22T21:32:16.983Z,1.13
2022-12-22T21:34:45.134Z,1.13
2022-12-22T21:37:17.310Z,1.13
2022-12-22T21:39:45.675Z,1.14
2022-12-22T21:42:18.787Z,1.16
2022-12-22T21:44:47.347Z,1.17
2022-12-22T21:47:18.373Z,1.20
2022-12-22T21:49:46.970Z,1.23
2022-12-22T21:52:15.156Z,1.27
2022-12-22T21:54:43.226Z,1.28
2022-12-22T21:57:16.296Z,1.29
2022-12-22T21:59:44.274Z,1.31
2022-12-22T22:02:17.716Z,1.33
2022-12-22T22:04:53.728Z,1.33
2022-12-22T22:07:22.991Z,1.31
2022-12-22T22:09:50.961Z,1.32
2022-12-22T22:12:34.066Z,1.33
2022-12-22T22:15:07.543Z,1.36
2022-12-22T22:17:35.630Z,1.38
2022-12-22T22:20:05.927Z,1.39
2022-12-22T22:22:34.211Z,1.41
2022-12-22T22:25:02.479Z,1.38
2022-12-22T22:27:30.556Z,1.36
2022-12-22T22:29:58.847Z,1.36
2022-12-22T22:32:27.009Z,1.36
2022-12-22T22:34:55.100Z,1.36
2022-12-22T22:37:23.151Z,1.35
2022-12-22T22:39:51.231Z,1.34
2022-12-22T22:42:19.403Z,1.33
2022-12-22T22:44:47.482Z,1.30
2022-12-22T22:47:16.070Z,1.31
2022-12-22T22:49:50.080Z,1.31
2022-12-22T22:52:18.530Z,1.32
2022-12-22T22:54:46.666Z,1.32
2022-12-22T22:57:16.041Z,1.31
2022-12-22T22:59:43.864Z,1.27
2022-12-22T23:02:12.193Z,1.27
2022-12-22T23:04:40.487Z,1.28
2022-12-22T23:07:08.613Z,1.30
2022-12-22T23:09:36.643Z,1.31
2022-12-22T23:12:05.319Z,1.31
2022-12-22T23:14:33.176Z,1.32
2022-12-22T23:17:01.160Z,1.33
2022-12-22T23:19:29.551Z,1.32
2022-12-22T23:21:57.711Z,1.31
2022-12-22T23:24:25.754Z,1.30
2022-12-22T23:26:53.956Z,1.30
2022-12-22T23:29:21.895Z,1.32
2022-12-22T23:31:50.051Z,1.32
2022-12-22T23:34:18.212Z,1.30
2022-12-22T23:36:46.141Z,1.29
2022-12-22T23:39:14.314Z,1.30
2022-12-22T23:41:42.480Z,1.31
2022-12-22T23:44:10.531Z,1.33
2022-12-22T23:46:39.436Z,1.33
2022-12-22T23:49:10.800Z,1.34
2022-12-22T23:51:38.760Z,1.34
2022-12-22T23:54:07.521Z,1.33
2022-12-22T23:56:35.730Z,1.32
2022-12-22T23:59:03.856Z,1.30
